GCLA/SPC METAR and TAF weather

Enter ICAO airport designator
Station Type Date Time Source
GCLA METAR 2018/07/21 11:30 UTC NOAA

GCLA 211130Z 03015KT 350V070 9999 SCT030 25/18 Q1020


Station Type Date Time Source
GCLA Decoded METAR 2018/07/21 11:30 UTC NOAA

La Palma / Aeropuerto, Spain (GCLA) 28-37N 017-45W 31M
Jul 21, 2018 - 07:30 AM EDT / 2018.07.21 1130 UTC
Wind: from the NNE (030 degrees) at 17 MPH (15 KT) (direction variable):0
Visibility: greater than 7 mile(s):0
Sky conditions: partly cloudy
Temperature: 77 F (25 C)
Dew Point: 64 F (18 C)
Relative Humidity: 65%
Pressure (altimeter): 30.12 in. Hg (1020 hPa)
ob: GCLA 211130Z 03015KT 350V070 9999 SCT030 25/18 Q1020
cycle: 11

Station Type Date Time Source
GCLA TAF 2018/07/21 09:27 UTC NOAA

TAF GCLA 210800Z 2109/2209 03015KT 9999 SCT025 TX26/2114Z TN20/2205Z


Example: see airport list